Latest Coastal Weather Observations for Wyndham Airport

IDD60701

Issued at 7:11 pm CST Monday 22 April 2024 (issued every 10 minutes, with the page automatically refreshed every 10 minutes)

About coastal observations | Map of coastal stations | Coastal observations for NT | Marine services | Other Formats
Station Details ID: 001006 Name: WYNDHAM AERO Lat: -15.51 Lon: 128.15 Height: 3.8 m
Data from the previous 72 hours. | See also: Recent months at Wyndham Airport
Date/Time
CST
Wind Sea
Height
m
Swell Vis
km
Cloud Weather Temp
°C
Press
MSL
hPa
Rain since
9am
mm
Dir  Spd
kts
Gust
kts
Height
m
Period
s
Dir
22/07:00pm ENE 3 3 - - - - - - - 27.9 1010.3 0.0
22/06:30pm ENE 4 5 - - - - - - - 29.9 1010.1 0.0
22/06:00pm ENE 5 7 - - - - - - - 31.4 1009.8 0.0
22/05:30pm ENE 6 8 - - - - - - - 32.0 1009.6 0.0
22/05:00pm ENE 6 9 - - - - - - - 32.1 1009.6 0.0
22/04:30pm ENE 6 11 - - - - - - - 32.8 1009.3 0.0
22/04:00pm ENE 7 10 - - - - - - - 32.3 1009.4 0.0
22/03:30pm ESE 8 12 - - - - - - - 32.8 1009.6 0.0
22/03:00pm SE 9 13 - - - - - - - 32.9 1010.1 0.0
22/02:30pm E 10 15 - - - - - - - 32.2 1010.5 0.0
22/02:00pm E 9 14 - - - - - - - 32.5 1010.8 0.0
22/01:30pm E 11 16 - - - - - - - 32.2 1011.2 0.0
22/01:00pm SE 10 13 - - - - - - - 31.7 1011.5 0.0
22/12:30pm SE 11 15 - - - - - - - 30.7 1012.2 0.0
22/12:00pm ESE 12 16 - - - - - - - 30.8 1012.5 0.0
22/11:30am ESE 13 18 - - - - - - - 30.4 1012.9 0.0
22/11:00am ESE 14 19 - - - - - - - 29.7 1013.1 0.0
22/10:30am ESE 13 17 - - - - - - - 29.6 1013.1 0.0
22/10:00am ESE 11 16 - - - - - - - 28.7 1013.1 0.0
22/09:30am SE 9 11 - - - - - - - 27.3 1013.1 0.0
22/09:00am SE 7 10 - - - - - - - 26.4 1013.0 0.0
22/08:30am SE 4 5 - - - - - - - 24.5 1013.0 0.0
22/08:00am ESE 4 5 - - - - - - - 22.8 1012.9 0.0
22/07:30am ENE 4 5 - - - - - - - 20.3 1012.7 0.0
22/07:00am E 3 5 - - - - - - - 19.3 1012.4 0.0
22/06:30am ENE 3 3 - - - - - - - 20.2 1012.2 0.0
22/06:00am ESE 2 4 - - - - - - - 20.6 1012.0 0.0
22/05:30am ESE 1 4 - - - - - - - 21.0 1012.0 0.0
22/05:00am ESE 4 5 - - - - - - - 20.9 1012.1 0.0
22/04:30am ENE 3 5 - - - - - - - 20.7 1012.2 0.0
22/04:00am ESE 3 4 - - - - - - - 21.3 1012.3 0.0
22/03:30am ESE 5 6 - - - - - - - 22.1 1012.4 0.0
22/03:00am SE 3 7 - - - - - - - 21.4 1012.5 0.0
22/02:30am ESE 3 3 - - - - - - - 21.0 1012.6 0.0
22/02:00am ESE 4 4 - - - - - - - 21.4 1012.6 0.0
22/01:30am E 4 5 - - - - - - - 21.7 1012.8 0.0
22/01:00am E 3 4 - - - - - - - 21.3 1013.2 0.0
22/12:30am ESE 4 4 - - - - - - - 22.2 1013.3 0.0
22/12:00am SE 3 4 - - - - - - - 21.7 1013.4 0.0
 
Date/Time
CST
Wind Sea
Height
m
Swell Vis
km
Cloud Weather Temp
°C
Press
MSL
hPa
Rain since
9am
mm
Dir  Spd
kts
Gust
kts
Height
m
Period
s
Dir
21/11:30pm SE 4 5 - - - - - - - 23.1 1013.4 0.0
21/11:00pm E 3 4 - - - - - - - 23.9 1013.4 0.0
21/10:30pm E 4 4 - - - - - - - 24.5 1013.5 0.0
21/10:00pm E 3 4 - - - - - - - 24.9 1013.7 0.0
21/09:30pm E 4 4 - - - - - - - 24.8 1013.7 0.0
21/09:00pm E 4 4 - - - - - - - 25.1 1013.5 0.0
21/08:30pm ESE 4 5 - - - - - - - 26.5 1013.3 0.0
21/08:00pm E 5 7 - - - - - - - 27.0 1012.8 0.0
21/07:30pm ESE 4 6 - - - - - - - 26.8 1012.4 0.0
21/07:00pm SSE 9 12 - - - - - - - 28.9 1011.9 0.0
21/06:30pm SSE 9 12 - - - - - - - 29.4 1011.5 0.0
21/06:00pm SSE 9 12 - - - - - - - 30.7 1011.2 0.0
21/05:30pm SSE 9 13 - - - - - - - 31.2 1010.9 0.0
21/05:00pm ESE 10 14 - - - - - - - 31.5 1010.8 0.0
21/04:30pm ESE 8 12 - - - - - - - 32.0 1010.6 0.0
21/04:00pm ESE 9 13 - - - - - - - 31.9 1010.6 0.0
21/03:30pm ESE 9 17 - - - - - - - 32.2 1010.7 0.0
21/03:00pm E 9 15 - - - - - - - 32.4 1011.0 0.0
21/02:30pm E 10 14 - - - - - - - 31.7 1011.3 0.0
21/02:00pm ESE 10 13 - - - - - - - 31.5 1011.8 0.0
21/01:30pm ESE 11 18 - - - - - - - 31.0 1012.1 0.0
21/01:00pm E 11 22 - - - - - - - 31.4 1012.3 0.0
21/12:30pm E 11 15 - - - - - - - 31.0 1012.7 0.0
21/12:00pm ESE 13 17 - - - - - - - 30.4 1013.3 0.0
21/11:30am ESE 12 16 - - - - - - - 29.7 1013.7 0.0
21/11:00am ESE 14 22 - - - - - - - 28.8 1013.9 0.0
21/10:30am ESE 16 21 - - - - - - - 28.4 1014.0 0.0
21/10:00am ESE 19 24 - - - - - - - 27.8 1013.6 0.0
21/09:30am ESE 18 24 - - - - - - - 27.1 1013.3 0.0
21/09:00am ESE 15 21 - - - - - - - 26.7 1013.1 0.0
21/08:30am ESE 12 16 - - - - - - - 25.6 1012.9 0.0
21/08:00am ESE 12 16 - - - - - - - 24.7 1012.8 0.0
21/07:30am ESE 11 14 - - - - - - - 23.4 1012.6 0.0
21/07:00am E 10 14 - - - - - - - 22.2 1012.3 0.0
21/06:30am ESE 5 6 - - - - - - - 19.3 1012.3 0.0
21/06:00am SE 6 7 - - - - - - - 19.3 1012.1 0.0
21/05:30am ESE 5 5 - - - - - - - 18.8 1012.2 0.0
21/05:00am SE 4 5 - - - - - - - 19.4 1012.2 0.0
21/04:30am SSE 4 5 - - - - - - - 19.9 1012.0 0.0
21/04:00am SE 5 6 - - - - - - - 20.1 1011.9 0.0
21/03:30am E 5 6 - - - - - - - 20.7 1011.9 0.0
21/03:00am ENE 3 4 - - - - - - - 21.0 1012.0 0.0
21/02:30am E 5 6 - - - - - - - 21.1 1012.0 0.0
21/02:00am ESE 3 6 - - - - - - - 21.7 1012.2 0.0
21/01:30am ESE 3 5 - - - - - - - 23.4 1012.4 0.0
21/01:00am E 3 4 - - - - - - - 23.6 1012.7 0.0
21/12:30am E 4 4 - - - - - - - 23.2 1012.8 0.0
21/12:00am CALM 0 0 - - - - - - - 21.8 1013.1 0.0
 
Date/Time
CST
Wind Sea
Height
m
Swell Vis
km
Cloud Weather Temp
°C
Press
MSL
hPa
Rain since
9am
mm
Dir  Spd
kts
Gust
kts
Height
m
Period
s
Dir
20/11:30pm ESE 3 4 - - - - - - - 22.3 1013.0 0.0
20/11:00pm ESE 5 6 - - - - - - - 23.1 1013.0 0.0
20/10:30pm ESE 5 5 - - - - - - - 23.7 1013.0 0.0
20/10:00pm ESE 4 5 - - - - - - - 23.3 1013.1 0.0
20/09:30pm E 4 4 - - - - - - - 23.3 1013.1 0.0
20/09:00pm ESE 4 4 - - - - - - - 23.3 1012.8 0.0
20/08:30pm ESE 4 5 - - - - - - - 24.3 1012.4 0.0
20/08:00pm SE 4 6 - - - - - - - 25.8 1012.0 0.0
20/07:30pm SSE 6 7 - - - - - - - 26.5 1011.6 0.0
20/07:00pm ESE 4 6 - - - - - - - 28.0 1011.3 0.0
20/06:30pm SE 7 8 - - - - - - - 30.0 1010.8 0.0
20/06:00pm SE 9 12 - - - - - - - 31.6 1010.4 0.0
20/05:30pm SE 10 13 - - - - - - - 32.6 1010.2 0.0
20/05:00pm SE 11 15 - - - - - - - 32.9 1009.9 0.0
20/04:30pm SE 10 15 - - - - - - - 33.1 1009.7 0.0
20/04:00pm SE 11 14 - - - - - - - 33.2 1009.9 0.0
20/03:30pm SE 11 14 - - - - - - - 33.5 1010.1 0.0
20/03:00pm SE 9 13 - - - - - - - 33.4 1010.5 0.0
20/02:30pm ESE 10 17 - - - - - - - 33.0 1011.0 0.0
20/02:00pm SE 10 17 - - - - - - - 32.9 1011.3 0.0
20/01:30pm SE 11 17 - - - - - - - 32.8 1011.9 0.0
20/01:00pm ESE 13 18 - - - - - - - 32.1 1012.2 0.0
20/12:30pm SE 16 19 - - - - - - - 31.2 1012.6 0.0
20/12:00pm SE 14 19 - - - - - - - 30.8 1013.0 0.0
20/11:30am ESE 15 20 - - - - - - - 30.5 1013.6 0.0
20/11:00am ESE 16 22 - - - - - - - 29.7 1014.0 0.0
20/10:30am ESE 16 22 - - - - - - - 29.2 1014.1 0.0
20/10:00am ESE 17 22 - - - - - - - 28.6 1014.2 0.0
20/09:30am ESE 16 23 - - - - - - - 28.0 1013.9 0.0
20/09:28am ESE 16 23 - - - - - - - 28.0 1013.8 0.0
20/09:00am ESE 10 13 - - - - - - - 27.5 1013.6 0.0
20/08:30am ESE 7 9 - - - - - - - 26.1 1013.7 0.0
20/08:00am SE 6 6 - - - - - - - 23.8 1013.5 0.0
20/07:30am ESE 5 6 - - - - - - - 21.9 1013.1 0.0
20/07:00am ESE 5 6 - - - - - - - 21.7 1012.9 0.0
20/06:30am SE 5 5 - - - - - - - 22.1 1012.7 0.0
20/06:00am E 4 5 - - - - - - - 22.1 1012.2 0.0
20/05:30am ESE 4 5 - - - - - - - 22.7 1012.0 0.0
20/05:00am ESE 5 6 - - - - - - - 22.4 1011.9 0.0
20/04:30am E 5 6 - - - - - - - 22.6 1011.7 0.0
20/04:00am E 5 5 - - - - - - - 22.4 1011.8 0.0
20/03:30am E 5 6 - - - - - - - 22.2 1011.9 0.0
20/03:00am E 4 5 - - - - - - - 22.7 1012.0 0.0
20/02:30am ESE 4 6 - - - - - - - 24.1 1012.1 0.0
20/02:00am ESE 4 5 - - - - - - - 24.7 1012.2 0.0
20/01:30am SE 4 5 - - - - - - - 25.1 1012.5 0.0
20/01:00am E 5 5 - - - - - - - 24.1 1012.7 0.0
20/12:30am ESE 4 6 - - - - - - - 24.5 1012.7 0.0
20/12:00am SE 4 5 - - - - - - - 24.2 1012.8 0.0
 
Date/Time
CST
Wind Sea
Height
m
Swell Vis
km
Cloud Weather Temp
°C
Press
MSL
hPa
Rain since
9am
mm
Dir  Spd
kts
Gust
kts
Height
m
Period
s
Dir
19/11:30pm SE 5 6 - - - - - - - 23.8 1012.8 0.0
19/11:00pm CALM 0 0 - - - - - - - 23.8 1012.8 0.0
19/10:30pm CALM 0 0 - - - - - - - 24.8 1012.9 0.0
19/10:00pm E 3 4 - - - - - - - 25.3 1012.9 0.0
19/09:30pm E 3 4 - - - - - - - 25.5 1012.6 0.0
19/09:00pm ESE 3 5 - - - - - - - 26.3 1012.4 0.0

Other formats

Comma delimited format used in spreadsheet applications
http://www.bom.gov.au/fwo/IDD60701/IDD60701.95214.axf

JavaScript Object Notation format (JSON) in row-major order
http://www.bom.gov.au/fwo/IDD60701/IDD60701.95214.json

Data quality

Most of these data are generated automatically and are frequently updated. Quality checks on data are not normally performed. It is possible for incorrect values to appear. Refer to information at About Latest Weather Observations and please check the disclaimer before using these data.